Time;durP1;ratioP1;P1;durP2;ratioP2;P2;SDS_P1;SDS_P2;PMS_P1;PMS_P2;Temp;Humidity;BMP_temperature;BMP_pressure;BME280_temperature;BME280_humidity;BME280_pressure;Samples;Min_cycle;Max_cycle;Signal;HPM_P1;HPM_P2
2021/06/21 00:01:30;;;;;;;7.20;3.33;;;20.60;99.90;;;;;;4975133;28;20213;-82
2021/06/21 00:03:57;;;;;;;9.23;3.60;;;20.50;99.90;;;;;;4980473;28;20452;-81
2021/06/21 00:06:23;;;;;;;12.97;3.17;;;20.40;99.90;;;;;;4972124;28;20896;-82
2021/06/21 00:08:48;;;;;;;9.10;3.20;;;20.30;99.90;;;;;;4974908;28;20428;-81
2021/06/21 00:11:17;;;;;;;8.17;2.50;;;20.30;99.90;;;;;;4974158;28;20223;-83
2021/06/21 00:13:43;;;;;;;5.70;2.63;;;20.20;99.90;;;;;;4979078;28;20229;-82
2021/06/21 00:16:08;;;;;;;7.70;2.93;;;20.20;99.90;;;;;;4972108;28;20965;-82
2021/06/21 00:18:34;;;;;;;12.23;2.60;;;20.20;99.90;;;;;;4972423;28;20259;-81
2021/06/21 00:21:00;;;;;;;7.07;2.50;;;20.50;99.90;;;;;;4973627;28;20229;-78
2021/06/21 00:23:25;;;;;;;7.03;3.07;;;20.40;99.90;;;;;;4971246;28;20258;-78
2021/06/21 00:25:51;;;;;;;6.27;2.90;;;20.50;99.90;;;;;;4974383;28;20241;-78
2021/06/21 00:28:17;;;;;;;6.60;2.80;;;20.50;99.90;;;;;;4969479;28;20196;-80
2021/06/21 00:30:44;;;;;;;6.23;2.77;;;20.60;99.90;;;;;;4970881;28;20485;-79
2021/06/21 00:33:11;;;;;;;7.53;2.90;;;20.40;99.90;;;;;;4973288;28;20442;-79
2021/06/21 00:35:36;;;;;;;6.00;3.10;;;20.60;99.90;;;;;;4972787;28;20449;-77
2021/06/21 00:38:04;;;;;;;5.73;2.90;;;20.30;99.90;;;;;;4972835;28;20425;-82
2021/06/21 00:40:30;;;;;;;5.07;2.77;;;20.30;99.90;;;;;;4971894;28;20216;-79
2021/06/21 00:42:56;;;;;;;4.80;3.50;;;20.20;99.90;;;;;;4972835;28;20453;-79
2021/06/21 00:45:23;;;;;;;6.37;2.73;;;20.30;99.90;;;;;;4971134;28;20870;-80
2021/06/21 00:47:50;;;;;;;4.50;2.40;;;20.30;99.90;;;;;;4973024;28;20221;-78
2021/06/21 00:50:16;;;;;;;11.40;2.33;;;20.20;99.90;;;;;;4972328;28;21163;-79
2021/06/21 00:52:42;;;;;;;5.40;2.57;;;20.10;99.90;;;;;;4977351;28;20446;-80
2021/06/21 00:55:09;;;;;;;6.20;2.50;;;20.10;99.90;;;;;;4974425;28;20190;-82
2021/06/21 00:57:37;;;;;;;9.87;2.73;;;20.30;99.90;;;;;;4970637;28;20448;-79
2021/06/21 01:00:10;;;;;;;7.70;2.70;;;20.20;99.90;;;;;;4976775;28;20472;-80
2021/06/21 01:02:36;;;;;;;9.40;4.00;;;20.30;99.90;;;;;;4969319;28;20437;-79
2021/06/21 01:05:11;;;;;;;5.40;2.60;;;20.30;99.90;;;;;;4974786;28;20455;-79
2021/06/21 01:07:38;;;;;;;4.87;3.10;;;20.20;99.90;;;;;;4970965;28;21264;-79
2021/06/21 01:10:05;;;;;;;4.90;2.30;;;20.30;99.90;;;;;;4975662;28;20457;-78
2021/06/21 01:12:46;;;;;;;11.43;3.13;;;20.00;99.90;;;;;;4972054;28;21322;-77
2021/06/21 01:15:14;;;;;;;7.60;3.10;;;20.00;99.90;;;;;;4972422;28;21665;-79
2021/06/21 01:18:02;;;;;;;10.50;2.73;;;20.10;99.90;;;;;;4975627;28;21049;-80
2021/06/21 01:20:53;;;;;;;13.47;3.97;;;20.10;99.90;;;;;;4973261;28;20476;-81
2021/06/21 01:23:56;;;;;;;5.27;2.40;;;20.20;99.90;;;;;;4975227;28;20788;-81
2021/06/21 01:26:51;;;;;;;9.20;2.70;;;20.10;99.90;;;;;;4974029;28;20951;-82
2021/06/21 01:29:51;;;;;;;6.77;3.37;;;20.20;99.90;;;;;;4968013;28;20450;-81
2021/06/21 01:32:17;;;;;;;7.97;3.30;;;19.90;99.90;;;;;;4971411;28;20442;-81
2021/06/21 01:34:53;;;;;;;5.70;2.40;;;20.10;99.90;;;;;;4978649;28;20464;-80
2021/06/21 01:37:22;;;;;;;5.50;2.40;;;20.00;99.90;;;;;;4976283;28;20194;-80
2021/06/21 01:39:52;;;;;;;9.43;2.93;;;20.10;99.90;;;;;;4976143;28;20865;-80
2021/06/21 01:42:22;;;;;;;8.37;2.60;;;20.10;99.90;;;;;;4979539;28;20493;-80
2021/06/21 01:44:59;;;;;;;6.40;2.70;;;20.20;99.90;;;;;;4977078;28;20461;-82
2021/06/21 01:47:25;;;;;;;4.90;2.60;;;20.10;99.90;;;;;;4975229;28;20766;-79
2021/06/21 01:49:52;;;;;;;6.00;3.20;;;20.10;99.90;;;;;;4973544;28;21104;-80
2021/06/21 01:52:19;;;;;;;3.03;2.43;;;20.20;99.90;;;;;;4972371;28;20813;-79
2021/06/21 01:54:53;;;;;;;8.00;2.57;;;20.10;99.90;;;;;;4974047;28;21221;-83
2021/06/21 01:57:24;;;;;;;10.67;3.00;;;20.20;99.90;;;;;;4972386;28;21090;-77
2021/06/21 01:59:51;;;;;;;4.30;2.50;;;20.20;99.90;;;;;;4974691;28;21154;-79
2021/06/21 02:02:19;;;;;;;11.63;3.03;;;20.30;99.90;;;;;;4971004;28;20446;-81
2021/06/21 02:04:46;;;;;;;4.87;2.63;;;20.20;99.90;;;;;;4974259;28;20449;-79
2021/06/21 02:07:16;;;;;;;3.53;2.03;;;19.90;99.90;;;;;;4975348;28;20429;-79
2021/06/21 02:09:43;;;;;;;8.33;2.67;;;19.90;99.90;;;;;;4973254;28;21117;-79
2021/06/21 02:12:09;;;;;;;5.03;2.07;;;19.80;99.90;;;;;;4971403;28;20457;-79
2021/06/21 02:14:36;;;;;;;11.27;3.03;;;19.80;99.90;;;;;;4978681;28;20442;-77
2021/06/21 02:17:02;;;;;;;10.60;2.80;;;19.70;99.90;;;;;;4977320;28;20541;-78
2021/06/21 02:19:31;;;;;;;10.27;2.97;;;19.60;99.90;;;;;;4975451;28;20461;-80
2021/06/21 02:21:58;;;;;;;3.83;2.37;;;19.50;99.90;;;;;;4980525;28;20544;-78
2021/06/21 02:24:24;;;;;;;9.43;4.17;;;19.50;99.90;;;;;;4976414;28;21027;-78
2021/06/21 02:26:51;;;;;;;6.67;2.60;;;19.50;99.90;;;;;;4976661;28;20549;-79
2021/06/21 02:29:21;;;;;;;7.20;2.30;;;19.40;99.90;;;;;;4974383;28;20485;-81
2021/06/21 02:31:47;;;;;;;7.90;2.70;;;19.50;99.90;;;;;;4974398;28;20531;-78
2021/06/21 02:34:13;;;;;;;6.47;2.37;;;19.40;99.90;;;;;;4973739;28;20975;-79
2021/06/21 02:36:39;;;;;;;6.80;2.33;;;19.50;99.90;;;;;;4975649;28;21827;-80
2021/06/21 02:39:07;;;;;;;7.40;2.83;;;19.50;99.90;;;;;;4974234;28;20448;-79
2021/06/21 02:41:33;;;;;;;7.03;2.50;;;19.40;99.90;;;;;;4974834;28;20222;-81
2021/06/21 02:43:59;;;;;;;6.03;2.73;;;19.40;99.90;;;;;;4973128;28;20438;-80
2021/06/21 02:46:24;;;;;;;7.27;2.73;;;19.40;99.90;;;;;;4976492;28;20946;-81
2021/06/21 02:48:51;;;;;;;4.60;2.00;;;19.30;99.90;;;;;;4978369;28;20187;-78
2021/06/21 02:51:24;;;;;;;8.63;3.30;;;19.30;99.90;;;;;;4974939;28;20276;-79
2021/06/21 02:54:05;;;;;;;7.73;2.83;;;19.30;99.90;;;;;;4976898;28;20436;-80
2021/06/21 02:56:48;;;;;;;7.17;2.47;;;19.20;99.90;;;;;;4974345;28;20442;-77
2021/06/21 02:59:17;;;;;;;11.23;2.80;;;19.20;99.90;;;;;;4976826;28;21127;-77
2021/06/21 03:01:50;;;;;;;5.90;2.57;;;19.30;99.90;;;;;;4971760;28;20965;-77
2021/06/21 03:04:18;;;;;;;9.63;2.10;;;19.20;99.90;;;;;;4980650;28;20965;-82
2021/06/21 03:06:46;;;;;;;3.30;2.13;;;19.30;99.90;;;;;;4976616;28;20449;-77
2021/06/21 03:09:14;;;;;;;8.93;2.63;;;19.30;99.90;;;;;;4976278;28;20487;-79
2021/06/21 03:11:42;;;;;;;7.73;2.80;;;19.30;99.90;;;;;;4972958;28;20461;-79
2021/06/21 03:14:09;;;;;;;4.37;2.20;;;19.20;99.90;;;;;;4973740;28;20440;-80
2021/06/21 03:16:35;;;;;;;9.43;2.60;;;19.30;99.90;;;;;;4977020;28;21100;-77
2021/06/21 03:19:02;;;;;;;14.00;2.50;;;19.20;99.90;;;;;;4977444;28;20469;-79
2021/06/21 03:21:28;;;;;;;3.67;2.43;;;19.30;99.90;;;;;;4977706;28;20508;-82
2021/06/21 03:23:56;;;;;;;8.50;3.10;;;19.30;99.90;;;;;;4971873;28;20458;-78
2021/06/21 03:26:26;;;;;;;6.50;2.63;;;19.30;99.90;;;;;;4977444;28;20948;-80
2021/06/21 03:28:53;;;;;;;15.27;2.90;;;19.30;99.90;;;;;;4973301;28;20473;-79
2021/06/21 03:31:20;;;;;;;5.50;2.50;;;19.30;99.90;;;;;;4977461;28;20573;-77
2021/06/21 03:33:46;;;;;;;4.43;2.97;;;19.30;99.90;;;;;;4972229;28;20454;-81
2021/06/21 03:36:12;;;;;;;8.07;3.57;;;19.30;99.90;;;;;;4971438;28;20441;-79
2021/06/21 03:38:40;;;;;;;11.43;3.13;;;19.30;99.90;;;;;;4972884;28;20919;-81
2021/06/21 03:41:06;;;;;;;5.97;2.77;;;19.30;99.90;;;;;;4971352;28;20226;-81
2021/06/21 03:43:33;;;;;;;5.20;2.60;;;19.40;99.90;;;;;;4976360;28;20480;-79
2021/06/21 03:46:01;;;;;;;10.07;2.93;;;19.20;99.90;;;;;;4973963;28;20237;-78
2021/06/21 03:48:28;;;;;;;6.10;2.43;;;19.20;99.90;;;;;;4977103;28;20444;-77
2021/06/21 03:50:55;;;;;;;8.40;2.90;;;19.30;99.90;;;;;;4974469;28;20468;-79
2021/06/21 03:53:23;;;;;;;7.47;3.70;;;19.20;99.90;;;;;;4974480;28;20451;-77
2021/06/21 03:55:48;;;;;;;8.33;3.27;;;19.20;99.90;;;;;;4971761;28;20789;-78
2021/06/21 03:58:15;;;;;;;9.77;3.33;;;19.20;99.90;;;;;;4973206;28;20444;-78
2021/06/21 04:00:41;;;;;;;4.23;2.73;;;19.30;99.90;;;;;;4973772;28;20706;-80
2021/06/21 04:03:07;;;;;;;6.33;2.27;;;19.30;99.90;;;;;;4962325;28;20437;-81
2021/06/21 04:05:33;;;;;;;7.50;2.60;;;19.20;99.90;;;;;;4972230;28;20194;-77
2021/06/21 04:07:59;;;;;;;7.10;3.03;;;19.40;99.90;;;;;;4972593;28;20837;-77
2021/06/21 04:10:26;;;;;;;14.77;3.00;;;19.30;99.90;;;;;;4978521;28;20464;-80
2021/06/21 04:12:54;;;;;;;16.67;3.03;;;19.30;99.90;;;;;;4981065;28;20255;-78
2021/06/21 04:15:27;;;;;;;10.90;3.60;;;19.40;99.90;;;;;;4973212;28;20446;-79
2021/06/21 04:17:53;;;;;;;8.30;2.77;;;19.40;99.90;;;;;;4975063;28;20494;-79
2021/06/21 04:20:19;;;;;;;10.57;3.00;;;19.40;99.90;;;;;;4973975;28;21393;-80
2021/06/21 04:22:45;;;;;;;11.53;3.00;;;19.40;99.90;;;;;;4974859;28;20579;-80
2021/06/21 04:25:14;;;;;;;7.23;2.57;;;19.40;99.90;;;;;;4972647;28;20183;-79
2021/06/21 04:27:40;;;;;;;10.77;2.80;;;19.40;99.90;;;;;;4965357;28;20201;-78
2021/06/21 04:30:12;;;;;;;9.30;2.73;;;19.40;99.90;;;;;;4972989;28;20512;-77
2021/06/21 04:32:38;;;;;;;9.33;4.13;;;19.50;99.90;;;;;;4973909;28;20433;-79
2021/06/21 04:35:07;;;;;;;8.33;3.03;;;19.40;99.90;;;;;;4974245;28;20804;-77
2021/06/21 04:37:33;;;;;;;6.17;2.70;;;19.40;99.90;;;;;;4974532;28;20451;-78
2021/06/21 04:40:00;;;;;;;7.07;2.43;;;19.50;99.90;;;;;;4970572;28;20441;-77
2021/06/21 04:42:26;;;;;;;7.83;2.63;;;19.50;99.90;;;;;;4967888;28;20444;-79
2021/06/21 04:44:52;;;;;;;12.20;2.90;;;19.40;99.90;;;;;;4971096;28;20539;-81
2021/06/21 04:47:20;;;;;;;4.30;2.10;;;19.50;99.90;;;;;;4968827;28;20197;-78
2021/06/21 04:49:46;;;;;;;9.03;2.60;;;19.50;99.90;;;;;;4974573;28;20686;-81
2021/06/21 04:52:12;;;;;;;6.13;2.63;;;19.60;99.90;;;;;;4974743;28;20426;-79
2021/06/21 04:54:39;;;;;;;9.53;3.00;;;19.60;99.90;;;;;;4971783;28;20212;-79
2021/06/21 04:57:05;;;;;;;7.90;3.10;;;19.70;99.90;;;;;;4974355;28;20595;-78
2021/06/21 04:59:31;;;;;;;8.07;3.50;;;19.60;99.90;;;;;;4971067;28;20418;-78
2021/06/21 05:01:56;;;;;;;7.17;2.40;;;19.60;99.90;;;;;;4974634;28;20830;-79
2021/06/21 05:04:22;;;;;;;6.80;3.43;;;19.60;99.90;;;;;;4969647;28;20182;-79
2021/06/21 05:06:48;;;;;;;7.87;2.60;;;19.60;99.90;;;;;;4975721;28;20194;-77
2021/06/21 05:09:14;;;;;;;6.73;2.47;;;19.60;99.90;;;;;;4971163;28;20749;-77
2021/06/21 05:11:39;;;;;;;6.83;2.77;;;19.60;99.90;;;;;;4970768;28;20727;-77
2021/06/21 05:14:05;;;;;;;3.83;2.30;;;19.70;99.90;;;;;;4961503;28;20197;-78
2021/06/21 05:16:31;;;;;;;8.13;3.07;;;19.80;99.90;;;;;;4975857;28;20202;-82
2021/06/21 05:18:57;;;;;;;14.10;3.13;;;19.80;99.90;;;;;;4976758;28;20847;-81
2021/06/21 05:21:23;;;;;;;9.10;2.90;;;19.80;99.90;;;;;;4969957;28;20846;-77
2021/06/21 05:23:49;;;;;;;14.23;3.97;;;19.90;99.90;;;;;;4975060;28;20527;-80
2021/06/21 05:26:14;;;;;;;6.17;2.63;;;19.90;99.90;;;;;;4974288;28;20190;-78
2021/06/21 05:28:40;;;;;;;4.53;2.40;;;19.90;99.90;;;;;;4973409;28;20277;-80
2021/06/21 05:31:06;;;;;;;8.17;2.70;;;20.00;99.90;;;;;;4971092;28;20206;-80
2021/06/21 05:33:35;;;;;;;6.30;3.00;;;20.10;99.90;;;;;;4970061;28;20188;-79
2021/06/21 05:36:03;;;;;;;6.27;3.03;;;20.10;99.90;;;;;;4972999;28;20683;-80
2021/06/21 05:38:29;;;;;;;4.80;2.07;;;20.20;99.90;;;;;;4972783;28;20449;-77
2021/06/21 05:40:55;;;;;;;5.97;2.53;;;20.30;99.90;;;;;;4971239;28;21027;-80
2021/06/21 05:43:23;;;;;;;6.13;3.07;;;20.30;99.90;;;;;;4970682;28;20210;-80
2021/06/21 05:45:49;;;;;;;5.43;3.00;;;20.40;99.90;;;;;;4970889;28;20281;-78
2021/06/21 05:48:15;;;;;;;10.40;2.47;;;20.40;99.90;;;;;;4963788;28;20529;-77
2021/06/21 05:50:41;;;;;;;6.90;3.00;;;20.40;99.90;;;;;;4957950;28;20211;-77
2021/06/21 05:53:07;;;;;;;5.20;2.50;;;20.50;99.90;;;;;;4975443;28;20277;-80
2021/06/21 05:55:33;;;;;;;6.27;2.90;;;20.50;99.90;;;;;;4972804;28;20438;-78
2021/06/21 05:58:00;;;;;;;4.30;2.50;;;20.50;99.90;;;;;;4970862;28;20629;-80
2021/06/21 06:00:26;;;;;;;6.00;2.07;;;20.60;99.90;;;;;;4978859;28;20563;-79
2021/06/21 06:02:52;;;;;;;4.50;2.40;;;20.70;99.90;;;;;;4975914;28;20541;-80
2021/06/21 06:05:18;;;;;;;8.43;2.40;;;20.70;99.90;;;;;;4973724;28;20194;-79
2021/06/21 06:07:45;;;;;;;8.90;2.87;;;20.70;99.90;;;;;;4973060;28;20244;-80
2021/06/21 06:10:11;;;;;;;8.67;2.90;;;20.80;99.90;;;;;;4971859;28;20520;-78
2021/06/21 06:12:37;;;;;;;3.80;2.33;;;20.80;99.90;;;;;;4974207;28;20522;-80
2021/06/21 06:15:03;;;;;;;5.53;2.60;;;20.90;99.90;;;;;;4974741;28;20857;-80
2021/06/21 06:17:29;;;;;;;9.63;3.07;;;21.00;99.90;;;;;;4975316;28;20432;-78
2021/06/21 06:19:59;;;;;;;11.10;2.63;;;21.10;99.90;;;;;;4976785;28;21010;-80
2021/06/21 06:22:24;;;;;;;8.17;3.47;;;21.20;99.90;;;;;;4975497;28;20742;-81
2021/06/21 06:24:50;;;;;;;5.00;2.33;;;21.20;99.90;;;;;;4969705;28;20908;-79
2021/06/21 06:27:16;;;;;;;6.73;2.70;;;21.10;99.90;;;;;;4974168;28;20194;-79
2021/06/21 06:29:42;;;;;;;6.70;2.23;;;21.20;99.90;;;;;;4972473;28;22248;-79
2021/06/21 06:32:09;;;;;;;7.27;2.30;;;21.20;99.90;;;;;;4973427;28;20229;-79
2021/06/21 06:34:35;;;;;;;3.10;2.10;;;21.20;99.90;;;;;;4978421;28;20468;-80
2021/06/21 06:37:01;;;;;;;6.50;4.03;;;21.20;99.90;;;;;;4974090;28;20450;-77
2021/06/21 06:39:27;;;;;;;7.50;3.20;;;21.20;99.90;;;;;;4971822;28;21851;-80
2021/06/21 06:42:21;;;;;;;3.27;2.57;;;21.20;99.90;;;;;;4971960;28;20639;-79
2021/06/21 06:44:47;;;;;;;5.87;3.47;;;21.20;99.90;;;;;;4975325;28;20213;-83
2021/06/21 06:47:13;;;;;;;6.57;3.23;;;21.20;99.90;;;;;;4980829;28;20457;-79
2021/06/21 06:49:39;;;;;;;3.70;2.63;;;21.30;99.90;;;;;;4976530;28;20691;-82
2021/06/21 06:52:04;;;;;;;7.67;2.73;;;21.30;99.90;;;;;;4972729;28;20265;-77
2021/06/21 06:57:38;;;;;;;4.50;2.10;;;21.30;99.90;;;;;;4927718;29;20723;-82
2021/06/21 07:00:06;;;;;;;4.97;2.80;;;21.40;99.90;;;;;;4961347;28;20437;-78
2021/06/21 07:02:32;;;;;;;9.93;3.73;;;21.40;99.90;;;;;;4971863;28;20994;-78
2021/06/21 07:08:21;;;;;;;5.70;2.17;;;21.50;99.90;;;;;;4974642;28;20420;-81
2021/06/21 07:10:47;;;;;;;5.00;2.70;;;21.50;99.90;;;;;;4971000;28;20552;-80
2021/06/21 07:13:16;;;;;;;4.97;2.97;;;21.60;99.90;;;;;;4972848;28;21348;-80
2021/06/21 07:15:41;;;;;;;6.20;2.50;;;21.70;99.90;;;;;;4977029;28;20273;-81
2021/06/21 07:18:07;;;;;;;7.00;3.17;;;21.80;99.90;;;;;;4979381;28;20901;-82
2021/06/21 07:20:32;;;;;;;3.40;2.37;;;21.80;99.90;;;;;;4977476;28;20272;-84
2021/06/21 07:22:59;;;;;;;4.50;2.83;;;21.90;99.90;;;;;;4981644;28;20288;-83
2021/06/21 07:25:24;;;;;;;5.83;2.87;;;21.90;99.90;;;;;;4972046;28;20198;-82
2021/06/21 07:27:50;;;;;;;6.93;2.30;;;21.80;99.90;;;;;;4978572;28;20986;-82
2021/06/21 07:30:17;;;;;;;9.03;3.97;;;21.90;99.90;;;;;;4978131;28;20214;-81
2021/06/21 07:32:42;;;;;;;7.10;2.37;;;21.90;99.90;;;;;;4981419;28;20202;-78
2021/06/21 07:35:11;;;;;;;4.03;3.03;;;21.90;99.90;;;;;;4978706;28;20434;-80
2021/06/21 07:37:37;;;;;;;9.37;2.70;;;22.00;99.90;;;;;;4982240;28;20195;-79
2021/06/21 07:40:05;;;;;;;3.73;2.50;;;22.10;99.90;;;;;;4979910;28;20433;-78
2021/06/21 07:42:30;;;;;;;5.57;2.40;;;22.20;99.90;;;;;;4970778;28;20197;-80
2021/06/21 07:44:56;;;;;;;6.57;2.90;;;22.20;99.90;;;;;;4977064;28;20445;-80
2021/06/21 07:47:22;;;;;;;6.60;2.50;;;22.20;99.90;;;;;;4976695;28;20271;-79
2021/06/21 07:49:48;;;;;;;7.37;2.93;;;22.30;99.90;;;;;;4974312;28;20438;-82
2021/06/21 07:52:13;;;;;;;6.07;3.07;;;22.40;99.90;;;;;;4973666;28;20221;-80
2021/06/21 07:54:39;;;;;;;6.60;2.47;;;22.50;99.90;;;;;;4971870;28;21746;-80
2021/06/21 07:57:05;;;;;;;7.73;2.50;;;22.50;99.90;;;;;;4974298;28;20206;-77
2021/06/21 07:59:31;;;;;;;9.50;2.30;;;22.60;99.90;;;;;;4969637;28;20197;-78
2021/06/21 08:01:56;;;;;;;5.10;2.47;;;22.50;99.90;;;;;;4975956;28;20469;-78
2021/06/21 08:04:22;;;;;;;4.50;2.13;;;22.50;99.90;;;;;;4970678;28;20201;-77
2021/06/21 08:06:48;;;;;;;5.70;2.97;;;22.50;99.90;;;;;;4974101;28;20197;-82
2021/06/21 08:09:14;;;;;;;6.93;2.60;;;22.50;99.90;;;;;;4977812;28;20284;-80
2021/06/21 08:11:39;;;;;;;6.03;2.53;;;22.40;99.90;;;;;;4969567;28;20229;-78
2021/06/21 08:14:05;;;;;;;5.47;2.37;;;22.50;99.90;;;;;;4970671;28;20241;-79
2021/06/21 08:16:34;;;;;;;6.30;3.03;;;22.60;99.90;;;;;;4969149;28;20206;-80
2021/06/21 08:19:00;;;;;;;4.27;2.67;;;22.70;99.90;;;;;;4973907;28;20190;-81
2021/06/21 08:21:25;;;;;;;4.13;3.73;;;22.70;99.90;;;;;;4972618;28;20540;-83
2021/06/21 08:23:52;;;;;;;5.83;2.90;;;22.80;99.90;;;;;;4972155;28;20222;-81
2021/06/21 08:26:18;;;;;;;6.87;2.80;;;22.80;99.90;;;;;;4973458;28;20186;-84
2021/06/21 08:28:44;;;;;;;5.60;3.23;;;22.80;99.90;;;;;;4974999;28;20836;-80
2021/06/21 08:31:10;;;;;;;8.10;3.10;;;22.90;99.90;;;;;;4978773;28;20540;-82
2021/06/21 08:33:36;;;;;;;4.57;2.40;;;23.00;99.90;;;;;;4947979;28;20218;-77
2021/06/21 08:36:02;;;;;;;4.97;2.43;;;23.00;99.90;;;;;;4970451;28;20237;-79
2021/06/21 08:38:28;;;;;;;5.73;2.40;;;23.10;99.90;;;;;;4970223;28;20582;-79
2021/06/21 08:40:53;;;;;;;8.70;2.93;;;23.10;99.90;;;;;;4978590;28;20480;-78
2021/06/21 08:43:25;;;;;;;9.63;2.73;;;23.00;99.90;;;;;;4974312;28;20272;-79
2021/06/21 08:45:50;;;;;;;8.10;3.90;;;23.00;99.90;;;;;;4972019;28;20268;-82
2021/06/21 08:48:18;;;;;;;5.77;2.80;;;23.10;99.90;;;;;;4968238;28;20418;-77
2021/06/21 08:50:46;;;;;;;4.23;3.13;;;23.20;99.90;;;;;;4973750;28;20257;-79
2021/06/21 08:53:13;;;;;;;9.93;3.03;;;23.30;99.90;;;;;;4977137;28;20519;-80
2021/06/21 08:55:38;;;;;;;5.23;2.67;;;23.30;99.90;;;;;;4973566;28;20437;-79
2021/06/21 08:58:24;;;;;;;3.93;2.60;;;23.30;99.90;;;;;;4974059;28;20495;-79
2021/06/21 09:00:50;;;;;;;5.03;3.10;;;23.40;99.90;;;;;;4972880;28;20617;-80
2021/06/21 09:03:17;;;;;;;4.90;2.83;;;23.40;99.90;;;;;;4970114;28;20548;-79
2021/06/21 09:05:43;;;;;;;3.07;2.60;;;23.40;99.90;;;;;;4974504;28;20344;-80
2021/06/21 09:08:09;;;;;;;4.40;2.60;;;23.50;99.90;;;;;;4973172;28;20420;-80
2021/06/21 09:14:53;;;;;;;3.40;2.53;;;23.70;99.90;;;;;;4963443;28;20412;-81
2021/06/21 09:17:21;;;;;;;5.50;2.70;;;23.60;99.90;;;;;;4971359;28;20528;-82
2021/06/21 09:19:54;;;;;;;4.10;3.63;;;23.60;99.90;;;;;;4971649;28;20445;-78
2021/06/21 09:22:50;;;;;;;5.60;3.33;;;23.80;99.90;;;;;;4968679;28;20488;-77
2021/06/21 09:25:16;;;;;;;3.43;2.30;;;23.90;99.90;;;;;;4978796;28;20442;-79
2021/06/21 09:27:52;;;;;;;4.13;2.67;;;24.00;99.90;;;;;;4975818;28;21272;-79
2021/06/21 09:30:19;;;;;;;5.63;2.73;;;23.80;99.90;;;;;;4973980;28;20222;-79
2021/06/21 09:32:50;;;;;;;5.77;2.87;;;23.90;99.90;;;;;;4972743;28;20504;-78
2021/06/21 09:35:31;;;;;;;4.80;2.67;;;24.10;99.90;;;;;;4972390;28;20479;-77
2021/06/21 09:38:19;;;;;;;5.83;2.73;;;24.30;99.90;;;;;;4969046;28;20547;-78
2021/06/21 09:40:48;;;;;;;5.60;2.70;;;24.40;99.90;;;;;;4973646;28;20481;-78
2021/06/21 09:43:37;;;;;;;12.43;3.30;;;24.50;99.90;;;;;;4970914;28;20823;-77
2021/06/21 09:46:13;;;;;;;4.77;2.80;;;24.30;99.90;;;;;;4974051;28;20449;-80
2021/06/21 09:48:54;;;;;;;4.00;2.77;;;24.30;99.90;;;;;;4974020;28;20631;-79
2021/06/21 09:51:26;;;;;;;5.00;2.77;;;24.20;99.90;;;;;;4971243;28;20504;-78
2021/06/21 09:54:14;;;;;;;6.30;2.77;;;24.30;99.90;;;;;;4978773;28;20529;-78
2021/06/21 09:56:54;;;;;;;3.30;2.50;;;24.30;99.90;;;;;;4975463;28;20509;-80
2021/06/21 10:02:01;;;;;;;6.50;3.10;;;24.20;99.90;;;;;;4440776;23;20500;-78
2021/06/21 10:04:28;;;;;;;8.40;2.80;;;24.40;99.90;;;;;;4942860;28;20474;-77
2021/06/21 10:06:54;;;;;;;5.40;2.63;;;24.60;99.90;;;;;;4946302;29;20809;-77
2021/06/21 10:09:20;;;;;;;6.30;2.50;;;24.60;99.90;;;;;;4945408;28;20439;-77
2021/06/21 10:11:46;;;;;;;5.50;3.07;;;24.60;99.90;;;;;;4949060;28;20218;-77
2021/06/21 10:14:20;;;;;;;6.03;3.13;;;24.80;99.90;;;;;;4946595;28;22467;-77
2021/06/21 10:16:48;;;;;;;4.00;3.00;;;24.90;99.90;;;;;;4947339;28;20461;-78
2021/06/21 10:19:15;;;;;;;3.47;2.47;;;25.00;99.90;;;;;;4940468;28;20507;-76
2021/06/21 10:21:43;;;;;;;6.70;3.03;;;25.00;99.90;;;;;;4940552;28;20536;-77
2021/06/21 10:24:10;;;;;;;3.10;2.50;;;25.10;99.90;;;;;;4940959;28;20477;-78
2021/06/21 10:26:39;;;;;;;3.73;2.93;;;25.30;99.90;;;;;;4942985;28;20447;-78
2021/06/21 10:29:06;;;;;;;4.70;3.13;;;25.40;99.90;;;;;;4944039;28;21042;-76
2021/06/21 10:31:32;;;;;;;5.60;3.63;;;25.40;99.90;;;;;;4943036;28;20466;-77
2021/06/21 10:34:00;;;;;;;3.77;3.33;;;25.40;99.90;;;;;;4942409;28;20509;-77
2021/06/21 10:36:44;;;;;;;4.33;3.80;;;25.50;99.90;;;;;;4945750;28;20870;-76
2021/06/21 10:39:12;;;;;;;2.60;2.40;;;25.60;99.90;;;;;;4942115;28;20446;-77
2021/06/21 10:41:38;;;;;;;4.83;2.60;;;25.60;99.90;;;;;;4941801;28;20470;-77
2021/06/21 10:44:04;;;;;;;4.90;3.17;;;25.50;99.90;;;;;;4942531;28;21140;-75
2021/06/21 10:46:31;;;;;;;3.37;2.77;;;25.30;99.90;;;;;;4942522;28;20184;-76
2021/06/21 10:49:02;;;;;;;3.70;3.23;;;25.20;99.90;;;;;;4943137;28;20250;-80
2021/06/21 10:51:34;;;;;;;2.97;2.67;;;25.40;99.90;;;;;;4945612;28;20466;-78
2021/06/21 10:54:01;;;;;;;4.40;3.20;;;25.60;99.90;;;;;;4946491;28;20879;-78
2021/06/21 10:56:42;;;;;;;5.60;2.50;;;25.80;99.90;;;;;;4950469;28;20465;-77
2021/06/21 10:59:19;;;;;;;5.00;2.77;;;25.70;99.90;;;;;;4946021;28;20438;-77
2021/06/21 11:01:49;;;;;;;5.37;4.87;;;25.80;99.90;;;;;;4945391;28;20912;-77
2021/06/21 11:04:37;;;;;;;3.40;3.10;;;26.10;99.90;;;;;;4943074;28;20452;-77
2021/06/21 11:07:10;;;;;;;7.97;3.60;;;26.10;99.90;;;;;;4943382;28;21199;-76
2021/06/21 11:09:41;;;;;;;3.33;2.50;;;26.30;99.90;;;;;;4939404;28;20819;-74
2021/06/21 11:12:35;;;;;;;3.50;3.20;;;26.20;99.90;;;;;;4941676;28;20462;-74
2021/06/21 11:15:09;;;;;;;3.53;3.20;;;26.30;99.90;;;;;;4940601;28;20462;-74
2021/06/21 11:17:50;;;;;;;5.63;3.30;;;26.10;99.90;;;;;;4941455;28;21061;-74
2021/06/21 11:20:44;;;;;;;3.23;2.70;;;25.90;99.90;;;;;;4941118;28;20453;-74
2021/06/21 11:23:40;;;;;;;4.43;3.43;;;26.20;99.90;;;;;;4941549;28;20454;-74
2021/06/21 11:26:06;;;;;;;3.80;3.00;;;26.20;99.90;;;;;;4941048;28;20483;-77
2021/06/21 11:28:43;;;;;;;7.20;3.10;;;26.10;99.90;;;;;;4938095;28;21906;-76
2021/06/21 11:31:28;;;;;;;6.40;2.90;;;26.50;99.90;;;;;;4942561;28;20239;-75
2021/06/21 11:33:59;;;;;;;2.87;2.60;;;26.50;99.90;;;;;;4939857;28;20462;-75
2021/06/21 11:36:42;;;;;;;3.30;3.00;;;26.60;99.90;;;;;;4939314;28;20682;-74
2021/06/21 11:39:28;;;;;;;3.60;2.90;;;26.70;99.90;;;;;;4958385;28;20478;-74
2021/06/21 11:42:02;;;;;;;2.87;2.63;;;26.60;99.90;;;;;;4941175;28;20494;-74
2021/06/21 11:44:39;;;;;;;3.57;2.73;;;26.60;99.90;;;;;;4941803;28;20546;-74
2021/06/21 11:47:14;;;;;;;3.07;2.80;;;26.80;99.90;;;;;;4941564;28;20441;-75
2021/06/21 11:49:44;;;;;;;3.00;2.70;;;27.00;99.90;;;;;;4940611;28;20526;-74
2021/06/21 11:52:15;;;;;;;3.10;2.80;;;27.30;99.90;;;;;;4940037;28;20470;-74
2021/06/21 11:54:44;;;;;;;3.07;2.77;;;27.20;99.90;;;;;;4943403;28;20447;-74
2021/06/21 11:57:10;;;;;;;3.20;2.90;;;27.60;99.90;;;;;;4942605;28;20453;-74
2021/06/21 11:59:37;;;;;;;2.97;2.77;;;27.50;99.90;;;;;;4941520;29;20446;-74
2021/06/21 12:02:07;;;;;;;3.60;2.73;;;27.90;99.90;;;;;;4939239;28;20573;-76
2021/06/21 12:04:33;;;;;;;3.93;2.70;;;28.30;99.90;;;;;;4943933;28;20448;-74
2021/06/21 12:06:59;;;;;;;2.87;2.30;;;28.60;99.90;;;;;;4938776;28;20446;-72
2021/06/21 12:09:25;;;;;;;3.23;2.77;;;29.70;99.90;;;;;;4938779;28;20815;-74
2021/06/21 12:11:52;;;;;;;3.77;2.90;;;30.30;99.90;;;;;;4939292;28;20462;-75
2021/06/21 12:14:23;;;;;;;4.83;2.90;;;30.50;99.90;;;;;;4939686;28;20462;-75
2021/06/21 12:16:50;;;;;;;3.00;2.63;;;31.20;99.90;;;;;;4945768;28;20945;-77
2021/06/21 12:19:16;;;;;;;4.80;2.57;;;31.50;99.90;;;;;;4944017;28;20455;-74
2021/06/21 12:21:46;;;;;;;3.33;3.03;;;31.50;99.90;;;;;;4940913;28;20475;-75
2021/06/21 12:24:23;;;;;;;2.83;2.40;;;31.30;99.90;;;;;;4938513;28;20199;-75
2021/06/21 12:26:52;;;;;;;2.73;2.50;;;30.10;99.90;;;;;;4939794;28;20434;-75
2021/06/21 12:29:25;;;;;;;5.70;3.57;;;30.40;99.90;;;;;;4942068;28;20443;-76
2021/06/21 12:32:12;;;;;;;7.23;2.63;;;31.20;99.90;;;;;;4940127;28;20469;-76
2021/06/21 12:34:43;;;;;;;3.53;3.07;;;33.30;99.80;;;;;;4937836;28;20470;-75
2021/06/21 12:37:37;;;;;;;5.10;3.13;;;34.30;95.50;;;;;;4942752;28;20498;-75
2021/06/21 12:40:13;;;;;;;4.20;2.43;;;33.00;95.60;;;;;;4941862;28;20451;-74
2021/06/21 12:42:39;;;;;;;5.00;3.07;;;33.90;94.10;;;;;;4941589;28;20420;-75
2021/06/21 12:45:25;;;;;;;2.60;2.40;;;34.70;92.20;;;;;;4942783;28;20461;-76
2021/06/21 12:47:55;;;;;;;6.40;2.67;;;35.80;89.00;;;;;;4942292;28;20198;-75
2021/06/21 12:50:24;;;;;;;3.23;2.70;;;36.60;83.10;;;;;;4943628;28;20896;-75
2021/06/21 12:52:53;;;;;;;2.70;2.50;;;36.00;78.60;;;;;;4945121;28;20435;-75
2021/06/21 12:55:27;;;;;;;3.00;2.70;;;37.30;73.30;;;;;;4943581;28;20444;-74
2021/06/21 12:57:54;;;;;;;3.00;2.80;;;37.30;70.30;;;;;;4940917;28;21018;-75
2021/06/21 13:00:37;;;;;;;2.80;2.60;;;38.00;66.80;;;;;;4941923;28;20542;-76
2021/06/21 13:03:11;;;;;;;4.83;2.60;;;37.80;62.90;;;;;;4940021;28;20429;-75
2021/06/21 13:05:57;;;;;;;2.77;2.53;;;38.10;60.10;;;;;;4942150;28;20441;-75
2021/06/21 13:08:58;;;;;;;2.70;2.50;;;37.30;61.50;;;;;;4942947;28;20941;-74
2021/06/21 13:11:23;;;;;;;3.10;2.80;;;38.90;58.70;;;;;;4936095;28;20499;-72